sensor_id;sensor_type;location;lat;lon;timestamp;P1;durP1;ratioP1;P2;durP2;ratioP2
17864;SDS011;9058;52.018;4.202;2023-03-14T00:00:49;14.73;;;2.60;;
17864;SDS011;9058;52.018;4.202;2023-03-14T00:03:15;13.55;;;2.63;;
17864;SDS011;9058;52.018;4.202;2023-03-14T00:05:42;14.20;;;3.20;;
17864;SDS011;9058;52.018;4.202;2023-03-14T00:08:09;11.88;;;1.85;;
17864;SDS011;9058;52.018;4.202;2023-03-14T00:10:38;13.10;;;2.85;;
17864;SDS011;9058;52.018;4.202;2023-03-14T00:13:04;10.32;;;2.40;;
17864;SDS011;9058;52.018;4.202;2023-03-14T00:15:32;15.38;;;3.20;;
17864;SDS011;9058;52.018;4.202;2023-03-14T00:17:58;13.90;;;2.83;;
17864;SDS011;9058;52.018;4.202;2023-03-14T00:20:25;10.55;;;2.30;;
17864;SDS011;9058;52.018;4.202;2023-03-14T00:22:52;9.48;;;2.38;;
17864;SDS011;9058;52.018;4.202;2023-03-14T00:25:18;8.05;;;3.15;;
17864;SDS011;9058;52.018;4.202;2023-03-14T00:27:46;10.32;;;2.53;;
17864;SDS011;9058;52.018;4.202;2023-03-14T00:30:13;16.25;;;2.97;;
17864;SDS011;9058;52.018;4.202;2023-03-14T00:32:40;19.60;;;3.05;;
17864;SDS011;9058;52.018;4.202;2023-03-14T00:35:08;19.88;;;4.28;;
17864;SDS011;9058;52.018;4.202;2023-03-14T00:37:34;12.82;;;2.72;;
17864;SDS011;9058;52.018;4.202;2023-03-14T00:40:01;23.05;;;3.45;;
17864;SDS011;9058;52.018;4.202;2023-03-14T00:42:30;18.45;;;3.15;;
17864;SDS011;9058;52.018;4.202;2023-03-14T00:44:59;14.13;;;3.33;;
17864;SDS011;9058;52.018;4.202;2023-03-14T00:47:25;17.02;;;3.53;;
17864;SDS011;9058;52.018;4.202;2023-03-14T00:49:52;15.85;;;3.13;;
17864;SDS011;9058;52.018;4.202;2023-03-14T00:52:18;19.95;;;3.78;;
17864;SDS011;9058;52.018;4.202;2023-03-14T00:54:45;14.73;;;3.13;;
17864;SDS011;9058;52.018;4.202;2023-03-14T00:57:12;19.65;;;4.22;;
17864;SDS011;9058;52.018;4.202;2023-03-14T00:59:38;13.60;;;3.60;;
17864;SDS011;9058;52.018;4.202;2023-03-14T01:02:06;19.67;;;4.20;;
17864;SDS011;9058;52.018;4.202;2023-03-14T01:04:33;17.52;;;3.53;;
17864;SDS011;9058;52.018;4.202;2023-03-14T01:06:59;20.60;;;4.18;;
17864;SDS011;9058;52.018;4.202;2023-03-14T01:09:26;16.77;;;3.55;;
17864;SDS011;9058;52.018;4.202;2023-03-14T01:11:53;15.82;;;3.25;;
17864;SDS011;9058;52.018;4.202;2023-03-14T01:14:20;16.60;;;3.00;;
17864;SDS011;9058;52.018;4.202;2023-03-14T01:16:49;14.98;;;2.95;;
17864;SDS011;9058;52.018;4.202;2023-03-14T01:19:17;9.05;;;2.47;;
17864;SDS011;9058;52.018;4.202;2023-03-14T01:21:43;15.77;;;3.20;;
17864;SDS011;9058;52.018;4.202;2023-03-14T01:24:10;20.48;;;3.67;;
17864;SDS011;9058;52.018;4.202;2023-03-14T01:26:37;13.68;;;3.08;;
17864;SDS011;9058;52.018;4.202;2023-03-14T01:29:03;8.32;;;2.80;;
17864;SDS011;9058;52.018;4.202;2023-03-14T01:31:30;14.75;;;2.60;;
17864;SDS011;9058;52.018;4.202;2023-03-14T01:33:56;10.88;;;2.55;;
17864;SDS011;9058;52.018;4.202;2023-03-14T01:36:24;11.73;;;3.25;;
17864;SDS011;9058;52.018;4.202;2023-03-14T01:38:51;10.70;;;2.92;;
17864;SDS011;9058;52.018;4.202;2023-03-14T01:41:19;10.60;;;2.75;;
17864;SDS011;9058;52.018;4.202;2023-03-14T01:43:46;9.93;;;2.08;;
17864;SDS011;9058;52.018;4.202;2023-03-14T01:46:16;9.80;;;2.80;;
17864;SDS011;9058;52.018;4.202;2023-03-14T01:48:44;15.20;;;2.33;;
17864;SDS011;9058;52.018;4.202;2023-03-14T01:51:13;11.95;;;2.50;;
17864;SDS011;9058;52.018;4.202;2023-03-14T01:53:41;9.00;;;2.67;;
17864;SDS011;9058;52.018;4.202;2023-03-14T01:56:09;12.05;;;2.05;;
17864;SDS011;9058;52.018;4.202;2023-03-14T01:58:38;6.35;;;1.85;;
17864;SDS011;9058;52.018;4.202;2023-03-14T02:01:05;12.73;;;3.88;;
17864;SDS011;9058;52.018;4.202;2023-03-14T02:03:34;12.15;;;2.60;;
17864;SDS011;9058;52.018;4.202;2023-03-14T02:06:06;11.20;;;2.22;;
17864;SDS011;9058;52.018;4.202;2023-03-14T02:08:33;12.85;;;2.58;;
17864;SDS011;9058;52.018;4.202;2023-03-14T02:11:03;11.32;;;2.17;;
17864;SDS011;9058;52.018;4.202;2023-03-14T02:13:30;12.05;;;2.65;;
17864;SDS011;9058;52.018;4.202;2023-03-14T02:15:57;9.13;;;2.10;;
17864;SDS011;9058;52.018;4.202;2023-03-14T02:18:23;10.40;;;2.33;;
17864;SDS011;9058;52.018;4.202;2023-03-14T02:20:51;8.82;;;2.20;;
17864;SDS011;9058;52.018;4.202;2023-03-14T02:23:20;8.50;;;2.10;;
17864;SDS011;9058;52.018;4.202;2023-03-14T02:25:51;11.68;;;2.17;;
17864;SDS011;9058;52.018;4.202;2023-03-14T02:28:22;9.77;;;2.42;;
17864;SDS011;9058;52.018;4.202;2023-03-14T02:30:49;8.40;;;2.13;;
17864;SDS011;9058;52.018;4.202;2023-03-14T02:33:16;11.93;;;2.63;;
17864;SDS011;9058;52.018;4.202;2023-03-14T02:35:44;12.23;;;2.70;;
17864;SDS011;9058;52.018;4.202;2023-03-14T02:38:15;7.45;;;1.63;;
17864;SDS011;9058;52.018;4.202;2023-03-14T02:40:43;8.60;;;1.95;;
17864;SDS011;9058;52.018;4.202;2023-03-14T02:43:10;9.68;;;2.30;;
17864;SDS011;9058;52.018;4.202;2023-03-14T02:45:40;10.88;;;1.80;;
17864;SDS011;9058;52.018;4.202;2023-03-14T02:48:07;6.85;;;2.03;;
17864;SDS011;9058;52.018;4.202;2023-03-14T02:50:35;7.63;;;1.63;;
17864;SDS011;9058;52.018;4.202;2023-03-14T02:53:01;12.13;;;2.17;;
17864;SDS011;9058;52.018;4.202;2023-03-14T02:55:28;12.48;;;2.13;;
17864;SDS011;9058;52.018;4.202;2023-03-14T02:57:54;9.75;;;2.15;;
17864;SDS011;9058;52.018;4.202;2023-03-14T03:00:21;11.25;;;2.45;;
17864;SDS011;9058;52.018;4.202;2023-03-14T03:02:49;13.27;;;2.78;;
17864;SDS011;9058;52.018;4.202;2023-03-14T03:05:15;11.25;;;3.03;;
17864;SDS011;9058;52.018;4.202;2023-03-14T03:07:42;7.05;;;2.08;;
17864;SDS011;9058;52.018;4.202;2023-03-14T03:10:08;10.52;;;3.20;;
17864;SDS011;9058;52.018;4.202;2023-03-14T03:12:35;12.27;;;2.58;;
17864;SDS011;9058;52.018;4.202;2023-03-14T03:15:02;7.45;;;1.90;;
17864;SDS011;9058;52.018;4.202;2023-03-14T03:17:28;10.25;;;2.58;;
17864;SDS011;9058;52.018;4.202;2023-03-14T03:20:00;8.88;;;2.70;;
17864;SDS011;9058;52.018;4.202;2023-03-14T03:22:34;10.75;;;3.15;;
17864;SDS011;9058;52.018;4.202;2023-03-14T03:25:00;8.73;;;2.60;;
17864;SDS011;9058;52.018;4.202;2023-03-14T03:27:29;8.98;;;2.30;;
17864;SDS011;9058;52.018;4.202;2023-03-14T03:29:55;13.05;;;3.45;;
17864;SDS011;9058;52.018;4.202;2023-03-14T03:32:22;14.32;;;3.65;;
17864;SDS011;9058;52.018;4.202;2023-03-14T03:34:49;10.48;;;3.97;;
17864;SDS011;9058;52.018;4.202;2023-03-14T03:37:18;8.10;;;2.92;;
17864;SDS011;9058;52.018;4.202;2023-03-14T03:39:44;12.10;;;3.42;;
17864;SDS011;9058;52.018;4.202;2023-03-14T03:42:11;11.60;;;3.47;;
17864;SDS011;9058;52.018;4.202;2023-03-14T03:44:38;12.80;;;3.33;;
17864;SDS011;9058;52.018;4.202;2023-03-14T03:47:04;13.30;;;3.45;;
17864;SDS011;9058;52.018;4.202;2023-03-14T03:49:30;10.30;;;3.45;;
17864;SDS011;9058;52.018;4.202;2023-03-14T03:51:58;9.95;;;3.38;;
17864;SDS011;9058;52.018;4.202;2023-03-14T03:54:25;12.93;;;4.43;;
17864;SDS011;9058;52.018;4.202;2023-03-14T03:56:53;13.35;;;3.33;;
17864;SDS011;9058;52.018;4.202;2023-03-14T03:59:20;7.28;;;2.50;;
17864;SDS011;9058;52.018;4.202;2023-03-14T04:01:47;20.13;;;4.45;;
17864;SDS011;9058;52.018;4.202;2023-03-14T04:04:14;11.75;;;2.85;;
17864;SDS011;9058;52.018;4.202;2023-03-14T04:06:41;10.02;;;3.17;;
17864;SDS011;9058;52.018;4.202;2023-03-14T04:09:08;11.93;;;3.28;;
17864;SDS011;9058;52.018;4.202;2023-03-14T04:11:36;7.53;;;2.58;;
17864;SDS011;9058;52.018;4.202;2023-03-14T04:14:02;9.45;;;2.38;;
17864;SDS011;9058;52.018;4.202;2023-03-14T04:16:29;11.77;;;2.63;;
17864;SDS011;9058;52.018;4.202;2023-03-14T04:18:56;11.57;;;2.17;;
17864;SDS011;9058;52.018;4.202;2023-03-14T04:21:23;10.68;;;3.03;;
17864;SDS011;9058;52.018;4.202;2023-03-14T04:23:49;9.85;;;3.28;;
17864;SDS011;9058;52.018;4.202;2023-03-14T04:26:16;8.77;;;2.30;;
17864;SDS011;9058;52.018;4.202;2023-03-14T04:28:44;11.57;;;3.15;;
17864;SDS011;9058;52.018;4.202;2023-03-14T04:31:11;9.40;;;3.22;;
17864;SDS011;9058;52.018;4.202;2023-03-14T04:33:38;9.82;;;2.90;;
17864;SDS011;9058;52.018;4.202;2023-03-14T04:36:05;14.63;;;3.90;;
17864;SDS011;9058;52.018;4.202;2023-03-14T04:38:32;12.93;;;3.60;;
17864;SDS011;9058;52.018;4.202;2023-03-14T04:40:59;15.15;;;3.20;;
17864;SDS011;9058;52.018;4.202;2023-03-14T04:43:26;8.55;;;2.83;;
17864;SDS011;9058;52.018;4.202;2023-03-14T04:45:54;15.40;;;3.70;;
17864;SDS011;9058;52.018;4.202;2023-03-14T04:48:21;10.57;;;3.60;;
17864;SDS011;9058;52.018;4.202;2023-03-14T04:50:49;10.85;;;3.58;;
17864;SDS011;9058;52.018;4.202;2023-03-14T04:53:16;6.45;;;3.50;;
17864;SDS011;9058;52.018;4.202;2023-03-14T04:55:47;10.45;;;3.13;;
17864;SDS011;9058;52.018;4.202;2023-03-14T04:58:13;9.65;;;3.00;;
17864;SDS011;9058;52.018;4.202;2023-03-14T05:00:40;9.95;;;3.97;;
17864;SDS011;9058;52.018;4.202;2023-03-14T05:03:08;11.60;;;3.88;;
17864;SDS011;9058;52.018;4.202;2023-03-14T05:05:34;5.82;;;2.80;;
17864;SDS011;9058;52.018;4.202;2023-03-14T05:08:01;17.92;;;3.85;;
17864;SDS011;9058;52.018;4.202;2023-03-14T05:10:28;11.43;;;3.42;;
17864;SDS011;9058;52.018;4.202;2023-03-14T05:12:55;9.57;;;2.05;;
17864;SDS011;9058;52.018;4.202;2023-03-14T05:15:22;16.70;;;2.50;;
17864;SDS011;9058;52.018;4.202;2023-03-14T05:17:48;17.48;;;2.13;;
17864;SDS011;9058;52.018;4.202;2023-03-14T05:20:17;12.45;;;2.63;;
17864;SDS011;9058;52.018;4.202;2023-03-14T05:22:44;20.23;;;2.72;;
17864;SDS011;9058;52.018;4.202;2023-03-14T05:25:11;18.15;;;2.30;;
17864;SDS011;9058;52.018;4.202;2023-03-14T05:27:37;14.80;;;3.25;;
17864;SDS011;9058;52.018;4.202;2023-03-14T05:30:04;16.35;;;2.90;;
17864;SDS011;9058;52.018;4.202;2023-03-14T05:32:31;13.77;;;2.20;;
17864;SDS011;9058;52.018;4.202;2023-03-14T05:34:58;18.45;;;2.20;;
17864;SDS011;9058;52.018;4.202;2023-03-14T05:37:26;19.60;;;2.20;;
17864;SDS011;9058;52.018;4.202;2023-03-14T05:39:53;14.38;;;2.88;;
17864;SDS011;9058;52.018;4.202;2023-03-14T05:42:19;6.22;;;1.70;;
17864;SDS011;9058;52.018;4.202;2023-03-14T05:44:46;17.98;;;1.92;;
17864;SDS011;9058;52.018;4.202;2023-03-14T05:47:13;17.05;;;2.60;;
17864;SDS011;9058;52.018;4.202;2023-03-14T05:49:39;10.15;;;1.65;;
17864;SDS011;9058;52.018;4.202;2023-03-14T05:52:06;8.02;;;1.40;;
17864;SDS011;9058;52.018;4.202;2023-03-14T05:54:34;9.52;;;1.67;;
17864;SDS011;9058;52.018;4.202;2023-03-14T05:57:01;14.40;;;2.55;;
17864;SDS011;9058;52.018;4.202;2023-03-14T05:59:27;9.70;;;1.42;;
17864;SDS011;9058;52.018;4.202;2023-03-14T06:01:54;12.13;;;1.73;;
17864;SDS011;9058;52.018;4.202;2023-03-14T06:04:21;7.30;;;1.60;;
17864;SDS011;9058;52.018;4.202;2023-03-14T06:06:48;9.93;;;1.88;;
17864;SDS011;9058;52.018;4.202;2023-03-14T06:09:14;8.52;;;1.60;;
17864;SDS011;9058;52.018;4.202;2023-03-14T06:11:43;12.25;;;1.77;;
17864;SDS011;9058;52.018;4.202;2023-03-14T06:14:11;9.60;;;1.73;;
17864;SDS011;9058;52.018;4.202;2023-03-14T06:16:37;16.40;;;2.97;;
17864;SDS011;9058;52.018;4.202;2023-03-14T06:19:04;17.73;;;2.80;;
17864;SDS011;9058;52.018;4.202;2023-03-14T06:21:31;12.45;;;2.15;;
17864;SDS011;9058;52.018;4.202;2023-03-14T06:23:57;9.82;;;2.10;;
17864;SDS011;9058;52.018;4.202;2023-03-14T06:26:24;13.10;;;2.45;;
17864;SDS011;9058;52.018;4.202;2023-03-14T06:28:51;11.20;;;1.70;;
17864;SDS011;9058;52.018;4.202;2023-03-14T06:31:18;12.88;;;1.70;;
17864;SDS011;9058;52.018;4.202;2023-03-14T06:33:45;10.15;;;1.90;;
17864;SDS011;9058;52.018;4.202;2023-03-14T06:36:11;10.10;;;1.73;;
17864;SDS011;9058;52.018;4.202;2023-03-14T06:38:38;15.55;;;1.77;;
17864;SDS011;9058;52.018;4.202;2023-03-14T06:41:04;13.95;;;2.15;;
17864;SDS011;9058;52.018;4.202;2023-03-14T06:43:31;12.63;;;2.35;;
17864;SDS011;9058;52.018;4.202;2023-03-14T06:45:59;11.35;;;2.08;;
17864;SDS011;9058;52.018;4.202;2023-03-14T06:48:25;7.60;;;1.70;;
17864;SDS011;9058;52.018;4.202;2023-03-14T06:50:52;13.70;;;2.25;;
17864;SDS011;9058;52.018;4.202;2023-03-14T06:53:18;9.20;;;2.45;;
17864;SDS011;9058;52.018;4.202;2023-03-14T06:55:45;8.35;;;1.30;;
17864;SDS011;9058;52.018;4.202;2023-03-14T06:58:12;10.15;;;2.10;;
17864;SDS011;9058;52.018;4.202;2023-03-14T07:00:39;10.82;;;1.83;;
17864;SDS011;9058;52.018;4.202;2023-03-14T07:03:07;12.45;;;1.13;;
17864;SDS011;9058;52.018;4.202;2023-03-14T07:05:33;7.63;;;1.35;;
17864;SDS011;9058;52.018;4.202;2023-03-14T07:08:00;11.45;;;1.67;;
17864;SDS011;9058;52.018;4.202;2023-03-14T07:10:26;9.10;;;1.42;;
17864;SDS011;9058;52.018;4.202;2023-03-14T07:12:52;8.55;;;1.70;;
17864;SDS011;9058;52.018;4.202;2023-03-14T07:15:19;7.53;;;1.67;;
17864;SDS011;9058;52.018;4.202;2023-03-14T07:17:45;8.68;;;2.55;;
17864;SDS011;9058;52.018;4.202;2023-03-14T07:20:14;15.20;;;1.90;;
17864;SDS011;9058;52.018;4.202;2023-03-14T07:22:40;9.55;;;2.30;;
17864;SDS011;9058;52.018;4.202;2023-03-14T07:25:07;9.55;;;1.60;;
17864;SDS011;9058;52.018;4.202;2023-03-14T07:27:34;5.80;;;1.08;;
17864;SDS011;9058;52.018;4.202;2023-03-14T07:30:02;12.48;;;1.60;;
17864;SDS011;9058;52.018;4.202;2023-03-14T07:32:28;15.65;;;2.38;;
17864;SDS011;9058;52.018;4.202;2023-03-14T07:34:56;14.20;;;2.65;;
17864;SDS011;9058;52.018;4.202;2023-03-14T07:37:24;15.77;;;2.00;;
17864;SDS011;9058;52.018;4.202;2023-03-14T07:39:50;13.60;;;2.25;;
17864;SDS011;9058;52.018;4.202;2023-03-14T07:42:16;7.45;;;1.35;;
17864;SDS011;9058;52.018;4.202;2023-03-14T07:44:43;13.45;;;2.13;;
17864;SDS011;9058;52.018;4.202;2023-03-14T07:47:09;6.80;;;2.20;;
17864;SDS011;9058;52.018;4.202;2023-03-14T07:49:36;14.90;;;1.55;;
17864;SDS011;9058;52.018;4.202;2023-03-14T07:52:02;8.07;;;1.60;;
17864;SDS011;9058;52.018;4.202;2023-03-14T07:54:31;6.68;;;1.75;;
17864;SDS011;9058;52.018;4.202;2023-03-14T07:56:57;9.30;;;1.77;;
17864;SDS011;9058;52.018;4.202;2023-03-14T07:59:25;8.07;;;1.50;;
17864;SDS011;9058;52.018;4.202;2023-03-14T08:01:51;9.20;;;1.38;;
17864;SDS011;9058;52.018;4.202;2023-03-14T08:04:18;9.63;;;1.17;;
17864;SDS011;9058;52.018;4.202;2023-03-14T08:06:44;7.25;;;1.67;;
17864;SDS011;9058;52.018;4.202;2023-03-14T08:09:10;3.90;;;1.40;;
17864;SDS011;9058;52.018;4.202;2023-03-14T08:11:39;10.75;;;1.63;;
17864;SDS011;9058;52.018;4.202;2023-03-14T08:14:05;5.97;;;1.63;;
17864;SDS011;9058;52.018;4.202;2023-03-14T08:16:32;1.97;;;0.87;;
17864;SDS011;9058;52.018;4.202;2023-03-14T08:18:58;10.20;;;1.13;;
17864;SDS011;9058;52.018;4.202;2023-03-14T08:21:24;3.47;;;1.00;;
17864;SDS011;9058;52.018;4.202;2023-03-14T08:23:51;6.07;;;1.20;;
17864;SDS011;9058;52.018;4.202;2023-03-14T08:26:17;3.72;;;1.17;;
17864;SDS011;9058;52.018;4.202;2023-03-14T08:28:46;6.00;;;1.52;;
17864;SDS011;9058;52.018;4.202;2023-03-14T08:31:12;7.77;;;1.40;;
17864;SDS011;9058;52.018;4.202;2023-03-14T08:33:39;5.75;;;1.50;;
17864;SDS011;9058;52.018;4.202;2023-03-14T08:36:06;8.77;;;1.43;;
17864;SDS011;9058;52.018;4.202;2023-03-14T08:38:32;6.37;;;1.40;;
17864;SDS011;9058;52.018;4.202;2023-03-14T08:40:59;7.60;;;1.90;;
17864;SDS011;9058;52.018;4.202;2023-03-14T08:43:26;10.68;;;1.70;;
17864;SDS011;9058;52.018;4.202;2023-03-14T08:45:58;8.60;;;1.55;;
17864;SDS011;9058;52.018;4.202;2023-03-14T08:48:25;12.18;;;1.88;;
17864;SDS011;9058;52.018;4.202;2023-03-14T08:50:54;12.50;;;1.83;;
17864;SDS011;9058;52.018;4.202;2023-03-14T08:53:23;11.32;;;1.65;;
17864;SDS011;9058;52.018;4.202;2023-03-14T08:55:52;10.35;;;1.85;;
17864;SDS011;9058;52.018;4.202;2023-03-14T08:58:18;12.23;;;2.40;;
17864;SDS011;9058;52.018;4.202;2023-03-14T09:00:44;12.40;;;1.80;;
17864;SDS011;9058;52.018;4.202;2023-03-14T09:03:12;10.23;;;2.15;;
17864;SDS011;9058;52.018;4.202;2023-03-14T09:05:39;6.88;;;2.08;;
17864;SDS011;9058;52.018;4.202;2023-03-14T09:08:06;16.17;;;2.92;;
17864;SDS011;9058;52.018;4.202;2023-03-14T09:10:32;9.32;;;1.80;;
17864;SDS011;9058;52.018;4.202;2023-03-14T09:12:58;21.60;;;2.80;;
17864;SDS011;9058;52.018;4.202;2023-03-14T09:15:25;12.25;;;2.78;;
17864;SDS011;9058;52.018;4.202;2023-03-14T09:17:51;13.35;;;2.25;;
17864;SDS011;9058;52.018;4.202;2023-03-14T09:20:20;13.43;;;3.80;;
17864;SDS011;9058;52.018;4.202;2023-03-14T09:22:46;12.23;;;2.15;;
17864;SDS011;9058;52.018;4.202;2023-03-14T09:25:12;10.80;;;2.67;;
17864;SDS011;9058;52.018;4.202;2023-03-14T09:27:39;9.73;;;2.57;;
17864;SDS011;9058;52.018;4.202;2023-03-14T09:30:06;17.33;;;2.38;;
17864;SDS011;9058;52.018;4.202;2023-03-14T09:32:33;8.73;;;2.15;;
17864;SDS011;9058;52.018;4.202;2023-03-14T09:34:59;7.95;;;1.95;;
17864;SDS011;9058;52.018;4.202;2023-03-14T09:37:28;12.68;;;2.63;;
17864;SDS011;9058;52.018;4.202;2023-03-14T09:39:55;11.20;;;2.83;;
17864;SDS011;9058;52.018;4.202;2023-03-14T09:42:22;10.20;;;3.30;;
17864;SDS011;9058;52.018;4.202;2023-03-14T09:44:52;17.60;;;3.53;;
17864;SDS011;9058;52.018;4.202;2023-03-14T09:47:19;17.52;;;3.67;;
17864;SDS011;9058;52.018;4.202;2023-03-14T09:49:46;13.97;;;3.53;;
17864;SDS011;9058;52.018;4.202;2023-03-14T09:52:13;18.88;;;3.55;;
17864;SDS011;9058;52.018;4.202;2023-03-14T09:54:44;17.20;;;3.08;;
17864;SDS011;9058;52.018;4.202;2023-03-14T09:57:12;15.75;;;2.88;;
17864;SDS011;9058;52.018;4.202;2023-03-14T09:59:39;24.40;;;3.38;;
17864;SDS011;9058;52.018;4.202;2023-03-14T10:02:13;26.38;;;4.65;;
17864;SDS011;9058;52.018;4.202;2023-03-14T10:04:40;17.87;;;3.60;;
17864;SDS011;9058;52.018;4.202;2023-03-14T10:07:09;17.67;;;3.72;;
17864;SDS011;9058;52.018;4.202;2023-03-14T10:09:39;19.77;;;2.72;;
17864;SDS011;9058;52.018;4.202;2023-03-14T10:12:08;18.15;;;2.63;;
17864;SDS011;9058;52.018;4.202;2023-03-14T10:14:35;12.20;;;2.50;;
17864;SDS011;9058;52.018;4.202;2023-03-14T10:17:08;22.00;;;3.40;;
17864;SDS011;9058;52.018;4.202;2023-03-14T10:19:35;13.27;;;2.55;;
17864;SDS011;9058;52.018;4.202;2023-03-14T10:22:03;20.15;;;3.10;;
17864;SDS011;9058;52.018;4.202;2023-03-14T10:24:30;16.00;;;3.55;;
17864;SDS011;9058;52.018;4.202;2023-03-14T10:26:58;20.67;;;3.40;;
17864;SDS011;9058;52.018;4.202;2023-03-14T10:29:28;17.73;;;2.50;;
17864;SDS011;9058;52.018;4.202;2023-03-14T10:31:59;13.88;;;2.60;;
17864;SDS011;9058;52.018;4.202;2023-03-14T10:34:27;14.43;;;3.05;;
17864;SDS011;9058;52.018;4.202;2023-03-14T10:36:55;10.05;;;2.88;;
17864;SDS011;9058;52.018;4.202;2023-03-14T10:39:23;8.88;;;2.47;;
17864;SDS011;9058;52.018;4.202;2023-03-14T10:41:52;13.27;;;2.92;;
17864;SDS011;9058;52.018;4.202;2023-03-14T10:44:19;16.65;;;3.53;;
17864;SDS011;9058;52.018;4.202;2023-03-14T10:46:50;17.38;;;3.17;;
17864;SDS011;9058;52.018;4.202;2023-03-14T10:49:23;12.02;;;3.55;;
17864;SDS011;9058;52.018;4.202;2023-03-14T10:51:51;12.32;;;3.03;;
17864;SDS011;9058;52.018;4.202;2023-03-14T10:54:19;12.98;;;2.88;;
17864;SDS011;9058;52.018;4.202;2023-03-14T10:56:47;9.85;;;2.72;;
17864;SDS011;9058;52.018;4.202;2023-03-14T10:59:21;10.50;;;2.45;;
17864;SDS011;9058;52.018;4.202;2023-03-14T11:01:50;12.98;;;2.50;;
17864;SDS011;9058;52.018;4.202;2023-03-14T11:04:22;14.80;;;2.50;;
17864;SDS011;9058;52.018;4.202;2023-03-14T11:06:52;15.18;;;2.58;;
17864;SDS011;9058;52.018;4.202;2023-03-14T11:09:24;12.57;;;2.38;;
17864;SDS011;9058;52.018;4.202;2023-03-14T11:11:54;18.63;;;3.15;;
17864;SDS011;9058;52.018;4.202;2023-03-14T11:14:24;13.32;;;3.08;;
17864;SDS011;9058;52.018;4.202;2023-03-14T11:16:58;14.15;;;3.08;;
17864;SDS011;9058;52.018;4.202;2023-03-14T11:19:29;12.27;;;2.63;;
17864;SDS011;9058;52.018;4.202;2023-03-14T11:21:58;9.60;;;2.15;;
17864;SDS011;9058;52.018;4.202;2023-03-14T11:24:31;14.05;;;2.53;;
17864;SDS011;9058;52.018;4.202;2023-03-14T11:26:59;13.90;;;4.70;;
17864;SDS011;9058;52.018;4.202;2023-03-14T11:29:30;11.52;;;2.53;;
17864;SDS011;9058;52.018;4.202;2023-03-14T11:32:01;9.93;;;2.55;;
17864;SDS011;9058;52.018;4.202;2023-03-14T11:34:29;10.43;;;1.88;;
17864;SDS011;9058;52.018;4.202;2023-03-14T11:37:01;11.60;;;2.10;;
17864;SDS011;9058;52.018;4.202;2023-03-14T11:39:34;7.45;;;2.40;;
17864;SDS011;9058;52.018;4.202;2023-03-14T11:42:02;12.45;;;2.17;;
17864;SDS011;9058;52.018;4.202;2023-03-14T11:44:30;14.35;;;3.35;;
17864;SDS011;9058;52.018;4.202;2023-03-14T11:47:02;16.08;;;3.45;;
17864;SDS011;9058;52.018;4.202;2023-03-14T11:49:30;9.32;;;2.38;;
17864;SDS011;9058;52.018;4.202;2023-03-14T11:51:59;6.93;;;2.45;;
17864;SDS011;9058;52.018;4.202;2023-03-14T11:54:29;11.15;;;2.38;;
17864;SDS011;9058;52.018;4.202;2023-03-14T11:56:58;12.23;;;2.22;;
17864;SDS011;9058;52.018;4.202;2023-03-14T11:59:27;13.15;;;3.13;;
17864;SDS011;9058;52.018;4.202;2023-03-14T12:01:56;9.02;;;2.22;;
17864;SDS011;9058;52.018;4.202;2023-03-14T12:04:39;9.80;;;2.97;;
17864;SDS011;9058;52.018;4.202;2023-03-14T12:07:07;11.57;;;2.70;;
17864;SDS011;9058;52.018;4.202;2023-03-14T12:09:37;10.80;;;2.20;;
17864;SDS011;9058;52.018;4.202;2023-03-14T12:12:04;10.63;;;2.03;;
17864;SDS011;9058;52.018;4.202;2023-03-14T12:14:32;13.98;;;2.45;;
17864;SDS011;9058;52.018;4.202;2023-03-14T12:17:04;12.43;;;2.30;;
17864;SDS011;9058;52.018;4.202;2023-03-14T12:19:32;6.22;;;1.90;;
17864;SDS011;9058;52.018;4.202;2023-03-14T12:22:05;12.35;;;1.92;;
17864;SDS011;9058;52.018;4.202;2023-03-14T12:24:34;10.38;;;2.13;;
17864;SDS011;9058;52.018;4.202;2023-03-14T12:27:02;6.18;;;1.60;;
17864;SDS011;9058;52.018;4.202;2023-03-14T12:29:29;8.75;;;2.17;;
17864;SDS011;9058;52.018;4.202;2023-03-14T12:32:08;7.57;;;1.55;;
17864;SDS011;9058;52.018;4.202;2023-03-14T12:34:35;5.60;;;1.40;;
17864;SDS011;9058;52.018;4.202;2023-03-14T12:37:09;5.82;;;1.25;;
17864;SDS011;9058;52.018;4.202;2023-03-14T12:39:40;7.53;;;1.80;;
17864;SDS011;9058;52.018;4.202;2023-03-14T12:42:10;9.82;;;2.08;;
17864;SDS011;9058;52.018;4.202;2023-03-14T12:44:42;9.38;;;1.75;;
17864;SDS011;9058;52.018;4.202;2023-03-14T12:50:06;4.88;;;1.30;;
17864;SDS011;9058;52.018;4.202;2023-03-14T12:52:36;6.65;;;1.38;;
17864;SDS011;9058;52.018;4.202;2023-03-14T12:55:10;8.43;;;1.73;;
17864;SDS011;9058;52.018;4.202;2023-03-14T12:57:40;5.85;;;2.13;;
17864;SDS011;9058;52.018;4.202;2023-03-14T13:00:16;6.68;;;1.77;;
17864;SDS011;9058;52.018;4.202;2023-03-14T13:02:44;9.38;;;1.63;;
17864;SDS011;9058;52.018;4.202;2023-03-14T13:05:11;7.25;;;1.70;;
17864;SDS011;9058;52.018;4.202;2023-03-14T13:10:23;11.77;;;1.73;;
17864;SDS011;9058;52.018;4.202;2023-03-14T13:12:51;5.20;;;1.20;;
17864;SDS011;9058;52.018;4.202;2023-03-14T13:15:19;11.45;;;1.67;;
17864;SDS011;9058;52.018;4.202;2023-03-14T13:17:47;7.53;;;1.15;;
17864;SDS011;9058;52.018;4.202;2023-03-14T13:20:16;10.65;;;1.92;;
17864;SDS011;9058;52.018;4.202;2023-03-14T13:22:45;6.68;;;1.92;;
17864;SDS011;9058;52.018;4.202;2023-03-14T13:25:13;8.35;;;1.50;;
17864;SDS011;9058;52.018;4.202;2023-03-14T13:27:43;6.63;;;1.30;;
17864;SDS011;9058;52.018;4.202;2023-03-14T13:30:14;9.45;;;2.13;;
17864;SDS011;9058;52.018;4.202;2023-03-14T13:32:43;10.18;;;1.88;;
17864;SDS011;9058;52.018;4.202;2023-03-14T13:35:14;5.28;;;1.23;;
17864;SDS011;9058;52.018;4.202;2023-03-14T13:37:41;9.48;;;2.17;;
17864;SDS011;9058;52.018;4.202;2023-03-14T13:40:17;11.07;;;2.30;;
17864;SDS011;9058;52.018;4.202;2023-03-14T13:42:45;10.32;;;2.08;;
17864;SDS011;9058;52.018;4.202;2023-03-14T13:45:12;7.85;;;1.52;;
17864;SDS011;9058;52.018;4.202;2023-03-14T13:47:39;10.50;;;2.67;;
17864;SDS011;9058;52.018;4.202;2023-03-14T13:50:11;15.40;;;1.67;;
17864;SDS011;9058;52.018;4.202;2023-03-14T13:52:38;8.02;;;2.05;;
17864;SDS011;9058;52.018;4.202;2023-03-14T13:55:06;14.50;;;2.15;;
17864;SDS011;9058;52.018;4.202;2023-03-14T13:57:43;8.30;;;1.77;;
17864;SDS011;9058;52.018;4.202;2023-03-14T14:00:17;8.75;;;2.58;;
17864;SDS011;9058;52.018;4.202;2023-03-14T14:02:44;6.80;;;1.63;;
17864;SDS011;9058;52.018;4.202;2023-03-14T14:05:11;12.20;;;1.67;;
17864;SDS011;9058;52.018;4.202;2023-03-14T14:07:38;10.18;;;2.05;;
17864;SDS011;9058;52.018;4.202;2023-03-14T14:10:05;10.45;;;1.80;;
17864;SDS011;9058;52.018;4.202;2023-03-14T14:12:32;9.68;;;1.67;;
17864;SDS011;9058;52.018;4.202;2023-03-14T14:15:00;7.80;;;1.40;;
17864;SDS011;9058;52.018;4.202;2023-03-14T14:17:31;6.10;;;1.90;;
17864;SDS011;9058;52.018;4.202;2023-03-14T14:19:58;9.57;;;1.90;;
17864;SDS011;9058;52.018;4.202;2023-03-14T14:22:25;6.10;;;1.58;;
17864;SDS011;9058;52.018;4.202;2023-03-14T14:24:52;6.40;;;1.73;;
17864;SDS011;9058;52.018;4.202;2023-03-14T14:27:19;9.43;;;2.10;;
17864;SDS011;9058;52.018;4.202;2023-03-14T14:29:57;9.02;;;1.40;;
17864;SDS011;9058;52.018;4.202;2023-03-14T14:32:24;8.98;;;1.95;;
17864;SDS011;9058;52.018;4.202;2023-03-14T14:34:57;4.93;;;1.10;;
17864;SDS011;9058;52.018;4.202;2023-03-14T14:37:25;7.80;;;1.15;;
17864;SDS011;9058;52.018;4.202;2023-03-14T14:39:52;5.15;;;1.70;;
17864;SDS011;9058;52.018;4.202;2023-03-14T14:42:20;8.43;;;2.13;;
17864;SDS011;9058;52.018;4.202;2023-03-14T14:44:49;6.15;;;1.67;;
17864;SDS011;9058;52.018;4.202;2023-03-14T14:47:17;10.60;;;2.00;;
17864;SDS011;9058;52.018;4.202;2023-03-14T14:49:44;5.07;;;1.20;;
17864;SDS011;9058;52.018;4.202;2023-03-14T14:52:14;7.80;;;1.27;;
17864;SDS011;9058;52.018;4.202;2023-03-14T14:54:44;11.48;;;2.03;;
17864;SDS011;9058;52.018;4.202;2023-03-14T14:57:16;9.70;;;2.47;;
17864;SDS011;9058;52.018;4.202;2023-03-14T14:59:43;5.15;;;1.40;;
17864;SDS011;9058;52.018;4.202;2023-03-14T15:02:16;6.57;;;1.75;;